Weather History for Glendive, MT

Change the Weather History Date:

Saturday, October 8, 2011

  Actual Average Record
Temperature  
Mean Temperature 52 °F -  
Max Temperature 57 °F 59 °F 78 °F (2010)
Min Temperature 46 °F 34 °F 24 °F (2000)
Degree Days  
Heating Degree Days 14    
Growing Degree Days 2 (Base 50)    
Moisture  
Dew Point 40 °F    
Average Humidity 68    
Maximum Humidity 82    
Minimum Humidity 44    
Precipitation  
Precipitation 0.00 in - - ()
Sea Level Pressure  
Sea Level Pressure 30.08 in    
Wind  
Wind Speed 14 mph (NW)    
Max Wind Speed 20 mph    
Max Gust Speed 24 mph    
Visibility 10 miles    
Events      
Averages and records for this station are not official NWS values.
T = Trace of Precipitation, MM = Missing Value Source: NWS Daily Summary

Daily Weather History Graph

Daily Weather History Graph

Search for Another Location

Airport:

Trip Planner

Search our weather history database for the weather conditions in past years. The results will help you decide how hot, cold, wet, or windy it might be!

Date:

Astronomy

Oct. 08, 2011 Rise Set
Actual Time 7:07 AM MDT 6:25 PM MDT
Civil Twilight 6:36 AM MDT 6:55 PM MDT
Nautical Twilight 6:01 AM MDT 7:31 PM MDT
Astronomical Twilight 5:25 AM MDT 8:06 PM MDT
Moon 4:45 PM MDT (10/8) 3:46 AM MDT (10/8)
Length of Visible Light 12h 19m
Length of Day
11h 18m
Waxing Gibbous, 90% of the Moon is Illuminated
Oct 8
Waxing Gibbous
Oct 11
Full
Oct 19
Last Quarter
Oct 26
New
Nov 2
First Quarter

Hourly Weather History & Observations

Time (MDT) Temp. Windchill Dew Point Humidity Pressure Visibility Wind Dir Wind Speed Gust Speed Precip Events Conditions
12:15 AM 50.0 °F - 44.6 °F 82% 29.86 in 10.0 mi WNW 15.0 mph 19.6 mph N/A   Overcast
12:35 AM 50.0 °F - 44.6 °F 82% 29.87 in 10.0 mi West 13.8 mph - N/A   Overcast
12:55 AM 50.0 °F - 44.6 °F 82% 29.88 in 10.0 mi WNW 13.8 mph 20.7 mph N/A   Overcast
1:15 AM 50.0 °F - 42.8 °F 76% 29.89 in 10.0 mi WNW 12.7 mph 17.3 mph N/A   Overcast
1:35 AM 50.0 °F - 42.8 °F 76% 29.90 in 10.0 mi WNW 12.7 mph 18.4 mph N/A   Overcast
1:55 AM 50.0 °F - 44.6 °F 82% 29.90 in 10.0 mi West 13.8 mph - N/A   Overcast
2:15 AM 50.0 °F - 44.6 °F 82% 29.90 in 10.0 mi WNW 13.8 mph - N/A   Overcast
2:35 AM 50.0 °F - 44.6 °F 82% 29.91 in 10.0 mi WNW 15.0 mph - N/A   Overcast
2:55 AM 48.2 °F - 42.8 °F 82% 29.90 in 10.0 mi WNW 17.3 mph 23.0 mph N/A   Overcast
3:15 AM 48.2 °F - 42.8 °F 82% 29.90 in 10.0 mi WNW 16.1 mph 23.0 mph N/A   Partly Cloudy
3:35 AM 48.2 °F - 41.0 °F 76% 29.91 in 10.0 mi WNW 13.8 mph 23.0 mph N/A   Clear
3:55 AM 46.4 °F 39.8 °F 41.0 °F 81% 29.92 in 10.0 mi WNW 16.1 mph - N/A   Clear
4:15 AM 48.2 °F - 41.0 °F 76% 29.94 in 10.0 mi NW 15.0 mph 21.9 mph N/A   Clear
4:35 AM 48.2 °F - 42.8 °F 82% 29.99 in 10.0 mi WNW 8.1 mph - N/A   Mostly Cloudy
4:55 AM 48.2 °F - 42.8 °F 82% 30.01 in 10.0 mi WNW 10.4 mph - N/A   Overcast
5:15 AM 48.2 °F - 42.8 °F 82% 30.03 in 10.0 mi West 5.8 mph - N/A   Overcast
5:35 AM 48.2 °F - 42.8 °F 82% 30.05 in 10.0 mi WNW 9.2 mph - N/A   Overcast
5:55 AM 48.2 °F - 42.8 °F 82% 30.03 in 10.0 mi WNW 9.2 mph - N/A   Overcast
6:15 AM 48.2 °F - 42.8 °F 82% 30.04 in 10.0 mi WNW 11.5 mph - N/A   Overcast
6:35 AM 48.2 °F - 42.8 °F 82% 30.06 in 10.0 mi WNW 11.5 mph - N/A   Overcast
6:55 AM 48.2 °F - 42.8 °F 82% 30.07 in 10.0 mi WNW 11.5 mph - N/A   Overcast
7:15 AM 48.2 °F - 42.8 °F 82% 30.07 in 10.0 mi WNW 12.7 mph - N/A   Overcast
7:35 AM 48.2 °F - 42.8 °F 82% 30.08 in 10.0 mi WNW 12.7 mph - N/A   Overcast
7:55 AM 48.2 °F - 42.8 °F 82% 30.09 in 10.0 mi WNW 13.8 mph - N/A   Scattered Clouds
8:15 AM 48.2 °F - 42.8 °F 82% 30.11 in 10.0 mi WNW 15.0 mph - N/A   Partly Cloudy
8:35 AM 48.2 °F - 42.8 °F 82% 30.11 in 10.0 mi WNW 15.0 mph - N/A   Mostly Cloudy
8:55 AM 48.2 °F - 41.0 °F 76% 30.12 in 10.0 mi WNW 11.5 mph 18.4 mph N/A   Overcast
9:15 AM 48.2 °F - 41.0 °F 76% 30.13 in 10.0 mi WNW 17.3 mph 21.9 mph N/A   Scattered Clouds
9:35 AM 50.0 °F - 39.2 °F 66% 30.13 in 10.0 mi NW 17.3 mph 23.0 mph N/A   Mostly Cloudy
9:55 AM 50.0 °F - 39.2 °F 66% 30.14 in 10.0 mi NW 18.4 mph 23.0 mph N/A   Scattered Clouds
10:15 AM 50.0 °F - 39.2 °F 66% 30.14 in 10.0 mi NW 15.0 mph 21.9 mph N/A   Mostly Cloudy
10:35 AM 51.8 °F - 39.2 °F 62% 30.15 in 10.0 mi NW 17.3 mph - N/A   Partly Cloudy
10:55 AM 51.8 °F - 39.2 °F 62% 30.14 in 10.0 mi NW 18.4 mph - N/A   Clear
11:15 AM 51.8 °F - 39.2 °F 62% 30.15 in 10.0 mi NW 15.0 mph - N/A   Clear
11:35 AM 51.8 °F - 39.2 °F 62% 30.16 in 10.0 mi NW 16.1 mph 24.2 mph N/A   Clear
11:55 AM 51.8 °F - 39.2 °F 62% 30.16 in 10.0 mi NW 18.4 mph 21.9 mph N/A   Clear
12:15 PM 51.8 °F - 39.2 °F 62% 30.17 in 10.0 mi NW 16.1 mph - N/A   Clear
12:35 PM 53.6 °F - 39.2 °F 58% 30.19 in 10.0 mi WNW 13.8 mph 21.9 mph N/A   Clear
12:55 PM 53.6 °F - 39.2 °F 58% 30.19 in 10.0 mi WNW 16.1 mph - N/A   Clear
1:15 PM 53.6 °F - 39.2 °F 58% 30.19 in 10.0 mi NW 17.3 mph - N/A   Clear
1:35 PM 53.6 °F - 39.2 °F 58% 30.18 in 10.0 mi NW 18.4 mph 23.0 mph N/A   Partly Cloudy
1:55 PM 55.4 °F - 39.2 °F 54% 30.18 in 10.0 mi NNW 17.3 mph 24.2 mph N/A   Scattered Clouds
2:15 PM 55.4 °F - 39.2 °F 54% 30.18 in 10.0 mi NNW 16.1 mph 20.7 mph N/A   Partly Cloudy
2:35 PM 55.4 °F - 39.2 °F 54% 30.18 in 10.0 mi NW 19.6 mph - N/A   Partly Cloudy
2:55 PM 55.4 °F - 39.2 °F 54% 30.18 in 10.0 mi NW 13.8 mph 18.4 mph N/A   Scattered Clouds
3:15 PM 55.4 °F - 37.4 °F 51% 30.18 in 10.0 mi NNW 16.1 mph 20.7 mph N/A   Scattered Clouds
3:35 PM 55.4 °F - 37.4 °F 51% 30.17 in 10.0 mi NNW 18.4 mph - N/A   Clear
3:55 PM 55.4 °F - 35.6 °F 47% 30.17 in 10.0 mi NNW 16.1 mph - N/A   Clear
4:15 PM 55.4 °F - 35.6 °F 47% 30.18 in 10.0 mi NW 13.8 mph - N/A   Clear
4:35 PM 57.2 °F - 35.6 °F 44% 30.18 in 10.0 mi NNW 13.8 mph - N/A   Partly Cloudy
4:55 PM 55.4 °F - 33.8 °F 44% 30.18 in 10.0 mi NW 12.7 mph - N/A   Scattered Clouds
5:15 PM 55.4 °F - 35.6 °F 47% 30.18 in 10.0 mi NW 15.0 mph 20.7 mph N/A   Mostly Cloudy
5:35 PM 55.4 °F - 33.8 °F 44% 30.19 in 10.0 mi North 8.1 mph 17.3 mph N/A   Mostly Cloudy
5:55 PM 55.4 °F - 33.8 °F 44% 30.21 in 10.0 mi North 8.1 mph - N/A   Scattered Clouds
6:15 PM 53.6 °F - 35.6 °F 51% 30.21 in 10.0 mi North 8.1 mph - N/A   Partly Cloudy
6:35 PM 50.0 °F - 35.6 °F 58% 30.22 in 10.0 mi NNW 6.9 mph - N/A   Clear
6:55 PM 48.2 °F - 35.6 °F 62% 30.23 in 10.0 mi NW 5.8 mph - N/A   Clear
7:15 PM 46.4 °F 42.4 °F 35.6 °F 66% 30.24 in 10.0 mi NW 8.1 mph - N/A   Clear
7:35 PM 44.6 °F 40.2 °F 35.6 °F 71% 30.24 in 10.0 mi NW 8.1 mph - N/A   Clear
7:55 PM 44.6 °F 40.2 °F 35.6 °F 71% 30.25 in 10.0 mi NW 8.1 mph - N/A   Clear
8:15 PM 44.6 °F 39.7 °F 35.6 °F 71% 30.25 in 10.0 mi NW 9.2 mph - N/A   Clear
8:35 PM 44.6 °F 39.2 °F 37.4 °F 76% 30.26 in 10.0 mi NNW 10.4 mph - N/A   Scattered Clouds
8:55 PM 44.6 °F 39.2 °F 35.6 °F 71% 30.26 in 10.0 mi NW 10.4 mph - N/A   Mostly Cloudy
9:15 PM 46.4 °F 41.9 °F 35.6 °F 66% 30.26 in 10.0 mi NW 9.2 mph - N/A   Mostly Cloudy
9:35 PM 46.4 °F 41.5 °F 35.6 °F 66% 30.26 in 10.0 mi NW 10.4 mph - N/A   Overcast
9:55 PM 46.4 °F 41.9 °F 37.4 °F 71% 30.26 in 10.0 mi NNW 9.2 mph - N/A   Overcast
10:15 PM 46.4 °F 42.9 °F 37.4 °F 71% 30.27 in 10.0 mi NNW 6.9 mph - N/A   Overcast
10:35 PM 46.4 °F 42.9 °F 37.4 °F 71% 30.28 in 10.0 mi NNW 6.9 mph - N/A   Overcast
10:55 PM 46.4 °F 42.9 °F 37.4 °F 71% 30.27 in 10.0 mi NNW 6.9 mph - N/A   Overcast
11:15 PM 46.4 °F 43.5 °F 35.6 °F 66% 30.27 in 10.0 mi NNW 5.8 mph - N/A   Mostly Cloudy
11:35 PM 44.6 °F 42.2 °F 35.6 °F 71% 30.27 in 10.0 mi North 4.6 mph - N/A   Mostly Cloudy
11:55 PM 42.8 °F 39.3 °F 35.6 °F 76% 30.27 in 10.0 mi North 5.8 mph - N/A   Partly Cloudy